logo
Search for airport 
image banner adimage banner adimage banner ad
image banner ad

SJ6M - Fazenda Lagoa Bonita

Located in Luciara, Brazil

ICAO - SJ6M, IATA -

Data provided by Airmate  

General information

Coordinates: S11°9'2" W50°57'4"
Elevation is 636 feet MSL.
Magnetic variation is -20.9° East
View others Airports in Tocatins

Operational data

Special qualification required
Current time UTC:
Current local time:
Weather at : - ( 0 km )
METAR: PAJC 142157Z AUTO 36005KT 10SM CLR 17/04 A3025 RMK AO2 SLP243 T01670044 $
View NOTAMs / SUP AIP / TFR affecting this airport [VIEW]
Communications frequencies: [VIEW]

Runways:

RWY identifierQFULength (ft)Width (ft)SurfaceLDA (ft)
10282546GRAVEL
28282546GRAVEL

Airport contact information

Address: Luciara Brazil

Satellite view of SJ6M